Terminal Aerodrome Forecast
Issued by NWS Sioux Falls, SD

Home | Current Version | Previous Version | Text Only | Print | Product List | Glossary Off
Versions: 1 2 3 4 5 6 7 8 9 10 11 12 13 14 15 16 17 18 19

000
FTUS43 KFSD 251739
TAFHON
TAF
KHON 251739Z 2518/2618 03016KT 3SM -SN SCT020 OVC035
      TEMPO 2518/2521 BKN025
     FM252100 36018G26KT P6SM SCT025 BKN070
     FM260000 35014KT P6SM SCT020 BKN070
     FM260700 34010KT P6SM SCT020=

USA.gov is the U.S. government's official web portal to all federal, state and local government web resources and services.